createdAt,value
2022-12-11T00:01:45.432Z,-2.79
2022-12-11T00:06:51.263Z,-2.82
2022-12-11T00:11:57.231Z,-2.79
2022-12-11T00:17:03.701Z,-2.80
2022-12-11T00:22:09.469Z,-2.79
2022-12-11T00:27:15.109Z,-2.70
2022-12-11T00:32:20.763Z,-2.72
2022-12-11T00:37:26.683Z,-2.66
2022-12-11T00:42:32.320Z,-2.67
2022-12-11T00:47:37.905Z,-2.70
2022-12-11T00:52:43.480Z,-2.58
2022-12-11T00:57:53.691Z,-2.63
2022-12-11T01:02:59.253Z,-2.64
2022-12-11T01:08:05.885Z,-2.59
2022-12-11T01:13:11.944Z,-2.63
2022-12-11T01:18:17.771Z,-2.65
2022-12-11T01:23:23.320Z,-2.68
2022-12-11T01:28:28.974Z,-2.66
2022-12-11T01:33:34.550Z,-2.66
2022-12-11T01:38:40.190Z,-2.56
2022-12-11T01:44:06.989Z,-2.47
2022-12-11T01:49:16.113Z,-2.53
2022-12-11T01:54:24.576Z,-2.55
2022-12-11T01:59:34.806Z,-2.77
2022-12-11T02:04:44.324Z,-2.73
2022-12-11T02:09:50.831Z,-2.73
2022-12-11T02:15:43.184Z,-2.60
2022-12-11T02:20:59.991Z,-2.61
2022-12-11T02:26:38.284Z,-2.63
2022-12-11T02:31:54.960Z,-2.68
2022-12-11T02:37:09.940Z,-2.95
2022-12-11T02:42:19.009Z,-2.74
2022-12-11T02:47:27.966Z,-2.78
2022-12-11T02:52:35.339Z,-2.87
2022-12-11T02:57:52.102Z,-2.86
2022-12-11T03:02:58.893Z,-2.88
2022-12-11T03:08:04.954Z,-2.98
2022-12-11T03:13:11.040Z,-2.93
2022-12-11T03:18:19.036Z,-2.99
2022-12-11T03:23:38.247Z,-2.97
2022-12-11T03:29:07.627Z,-2.99
2022-12-11T03:34:26.337Z,-3.07
2022-12-11T03:39:36.858Z,-3.04
2022-12-11T03:44:50.607Z,-3.00
2022-12-11T03:49:59.321Z,-2.97
2022-12-11T03:55:08.034Z,-2.88
2022-12-11T04:00:18.962Z,-2.91
2022-12-11T04:05:24.730Z,-3.08
2022-12-11T04:10:30.004Z,-3.14
2022-12-11T04:15:35.993Z,-3.24
2022-12-11T04:21:02.557Z,-3.23
2022-12-11T04:26:13.881Z,-3.26
2022-12-11T04:31:22.559Z,-3.29
2022-12-11T04:36:27.857Z,-3.25
2022-12-11T04:41:33.472Z,-3.13
2022-12-11T04:46:39.175Z,-3.18
2022-12-11T04:51:45.547Z,-3.31
2022-12-11T04:56:52.354Z,-3.37
2022-12-11T05:01:58.562Z,-3.54
2022-12-11T05:07:04.339Z,-3.49
2022-12-11T05:12:09.883Z,-3.40
2022-12-11T05:17:15.107Z,-3.31
2022-12-11T05:22:20.887Z,-3.42
2022-12-11T05:27:26.543Z,-3.52
2022-12-11T05:32:33.337Z,-3.50
2022-12-11T05:37:38.575Z,-3.47
2022-12-11T05:42:44.093Z,-3.47
2022-12-11T05:47:49.773Z,-3.50
2022-12-11T05:52:55.894Z,-3.54
2022-12-11T05:58:01.961Z,-3.50
2022-12-11T06:03:08.023Z,-3.50
2022-12-11T06:08:15.533Z,-3.47
2022-12-11T06:13:21.238Z,-3.36
2022-12-11T06:18:26.935Z,-3.31
2022-12-11T06:23:33.352Z,-3.24
2022-12-11T06:28:39.854Z,-3.21
2022-12-11T06:33:45.214Z,-3.26
2022-12-11T06:38:51.821Z,-3.16
2022-12-11T06:43:57.346Z,-3.01
2022-12-11T06:49:05.120Z,-3.00
2022-12-11T06:54:10.925Z,-3.13
2022-12-11T06:59:16.787Z,-2.86
2022-12-11T07:04:25.695Z,-2.82
2022-12-11T07:09:31.429Z,-2.78
2022-12-11T07:14:37.365Z,-2.87
2022-12-11T07:19:43.314Z,-2.51
2022-12-11T07:24:51.822Z,-2.53
2022-12-11T07:29:57.817Z,-2.33
2022-12-11T07:35:03.626Z,-2.15
2022-12-11T07:40:10.440Z,-2.15
2022-12-11T07:45:16.233Z,-2.10
2022-12-11T07:50:21.837Z,-1.87
2022-12-11T07:55:27.421Z,-1.84
2022-12-11T08:00:32.824Z,-1.77
2022-12-11T08:05:38.368Z,-1.76
2022-12-11T08:10:44.136Z,-1.65
2022-12-11T08:15:50.255Z,-1.80
2022-12-11T08:20:55.855Z,-1.62
2022-12-11T08:26:05.162Z,-1.43
2022-12-11T08:31:12.869Z,-1.40
2022-12-11T08:36:23.689Z,-1.39
2022-12-11T08:41:31.384Z,-1.32
2022-12-11T08:46:37.166Z,-1.34
2022-12-11T08:51:43.131Z,-1.39
2022-12-11T08:56:50.484Z,-1.33
2022-12-11T09:02:00.383Z,-1.31
2022-12-11T09:07:07.087Z,-1.17
2022-12-11T09:12:13.480Z,-0.94
2022-12-11T09:17:18.896Z,-0.78
2022-12-11T09:22:24.335Z,-0.67
2022-12-11T09:27:29.868Z,-0.60
2022-12-11T09:32:35.131Z,-0.56
2022-12-11T09:37:40.640Z,-0.65
2022-12-11T09:43:18.898Z,-0.50
2022-12-11T09:48:27.258Z,-0.47
2022-12-11T09:53:37.448Z,-0.45
2022-12-11T09:59:18.337Z,-0.41
2022-12-11T10:04:48.613Z,-0.38
2022-12-11T10:10:37.275Z,-0.42
2022-12-11T10:16:29.235Z,-0.32
2022-12-11T10:21:47.789Z,-0.24
2022-12-11T10:27:01.230Z,-0.13
2022-12-11T10:32:24.388Z,-0.08
2022-12-11T10:37:30.284Z,-0.15
2022-12-11T10:42:35.595Z,-0.15
2022-12-11T10:47:41.821Z,-0.25
2022-12-11T10:52:47.467Z,0.02
2022-12-11T10:58:20.361Z,-0.07
2022-12-11T11:03:28.519Z,0.05
2022-12-11T11:08:49.380Z,-0.13
2022-12-11T11:14:21.381Z,-0.14
2022-12-11T11:19:35.783Z,0.00
2022-12-11T11:25:17.570Z,-0.01
2022-12-11T11:30:38.901Z,-0.03
2022-12-11T11:36:06.862Z,-0.10
2022-12-11T11:41:52.030Z,0.00
2022-12-11T11:47:21.010Z,0.11
2022-12-11T11:52:37.464Z,0.26
2022-12-11T11:58:01.941Z,0.37
2022-12-11T12:03:32.236Z,0.35
2022-12-11T12:08:38.552Z,0.24
2022-12-11T12:13:57.838Z,0.10
2022-12-11T12:19:38.049Z,-0.03
2022-12-11T12:24:53.263Z,-0.10
2022-12-11T12:30:21.793Z,-0.27
2022-12-11T12:35:41.498Z,-0.37
2022-12-11T12:41:03.301Z,-0.30
2022-12-11T12:46:22.959Z,-0.42
2022-12-11T12:51:29.640Z,-0.46
2022-12-11T12:56:40.022Z,-0.44
2022-12-11T13:01:50.295Z,-0.42
2022-12-11T13:06:56.961Z,-0.45
2022-12-11T13:12:16.286Z,-0.47
2022-12-11T13:17:22.454Z,-0.46
2022-12-11T13:22:27.960Z,-0.36
2022-12-11T13:27:40.199Z,-0.27
2022-12-11T13:33:08.626Z,-0.13
2022-12-11T13:38:21.816Z,-0.15
2022-12-11T13:43:31.955Z,-0.18
2022-12-11T13:48:43.179Z,-0.17
2022-12-11T13:53:50.774Z,-0.12
2022-12-11T13:58:57.712Z,-0.14
2022-12-11T14:04:17.631Z,-0.15
2022-12-11T14:09:26.865Z,-0.16
2022-12-11T14:14:46.620Z,-0.15
2022-12-11T14:19:52.838Z,-0.24
2022-12-11T14:25:04.286Z,-0.17
2022-12-11T14:30:13.795Z,-0.06
2022-12-11T14:35:38.840Z,-0.10
2022-12-11T14:40:50.782Z,-0.13
2022-12-11T14:46:01.407Z,-0.21
2022-12-11T14:51:15.199Z,-0.19
2022-12-11T14:56:28.300Z,-0.18
2022-12-11T15:01:39.251Z,-0.15
2022-12-11T15:06:47.370Z,-0.30
2022-12-11T15:11:55.978Z,-0.47
2022-12-11T15:17:01.773Z,-0.48
2022-12-11T15:22:13.743Z,-0.44
2022-12-11T15:27:34.767Z,-0.35
2022-12-11T15:32:40.311Z,-0.39
2022-12-11T15:37:55.547Z,-0.30
2022-12-11T15:43:02.841Z,-0.26
2022-12-11T15:48:11.963Z,-0.42
2022-12-11T15:53:17.937Z,-0.38
2022-12-11T15:58:25.199Z,-0.50
2022-12-11T16:03:30.999Z,-0.46
2022-12-11T16:08:37.273Z,-0.53
2022-12-11T16:13:42.739Z,-0.49
2022-12-11T16:18:49.081Z,-0.58
2022-12-11T16:23:54.894Z,-0.57
2022-12-11T16:29:00.469Z,-0.60
2022-12-11T16:34:05.974Z,-0.66
2022-12-11T16:39:13.097Z,-0.60
2022-12-11T16:44:26.027Z,-0.55
2022-12-11T16:49:32.104Z,-0.66
2022-12-11T16:54:37.400Z,-0.64
2022-12-11T16:59:44.004Z,-0.71
2022-12-11T17:04:53.654Z,-0.73
2022-12-11T17:10:02.995Z,-0.82
2022-12-11T17:15:11.476Z,-0.94
2022-12-11T17:20:18.746Z,-0.99
2022-12-11T17:25:25.423Z,-1.18
2022-12-11T17:30:30.783Z,-1.29
2022-12-11T17:35:37.137Z,-1.51
2022-12-11T17:40:44.262Z,-1.49
2022-12-11T17:45:53.185Z,-1.45
2022-12-11T17:50:59.223Z,-1.56
2022-12-11T17:56:07.586Z,-1.73
2022-12-11T18:01:14.329Z,-1.65
2022-12-11T18:06:20.114Z,-1.79
2022-12-11T18:11:26.389Z,-1.82
2022-12-11T18:16:36.130Z,-1.82
2022-12-11T18:21:44.347Z,-1.91
2022-12-11T18:26:50.554Z,-1.98
2022-12-11T18:31:56.300Z,-2.22
2022-12-11T18:37:01.931Z,-2.65
2022-12-11T18:47:39.461Z,-3.31
2022-12-11T18:52:45.113Z,-3.17
2022-12-11T18:57:50.846Z,-3.14
2022-12-11T19:02:58.746Z,-3.44
2022-12-11T19:08:04.866Z,-3.67
2022-12-11T19:13:11.200Z,-3.84
2022-12-11T19:18:16.713Z,-4.11
2022-12-11T19:23:23.660Z,-4.12
2022-12-11T19:28:29.207Z,-4.25
2022-12-11T19:33:35.329Z,-4.41
2022-12-11T19:38:42.141Z,-4.48
2022-12-11T19:43:48.253Z,-4.63
2022-12-11T19:48:55.818Z,-4.70
2022-12-11T19:54:07.619Z,-4.89
2022-12-11T19:59:17.261Z,-4.88
2022-12-11T20:04:22.903Z,-4.91
2022-12-11T20:09:28.434Z,-5.06
2022-12-11T20:14:33.871Z,-5.08
2022-12-11T20:19:39.718Z,-5.16
2022-12-11T20:24:45.301Z,-5.30
2022-12-11T20:29:50.756Z,-5.28
2022-12-11T20:34:59.895Z,-5.31
2022-12-11T20:40:06.495Z,-5.37
2022-12-11T20:45:12.801Z,-5.48
2022-12-11T20:50:18.694Z,-5.56
2022-12-11T20:55:24.215Z,-5.66
2022-12-11T21:00:29.984Z,-5.70
2022-12-11T21:05:42.794Z,-6.03
2022-12-11T21:10:48.422Z,-6.00
2022-12-11T21:16:00.588Z,-5.91
2022-12-11T21:21:06.985Z,-5.93
2022-12-11T21:26:12.601Z,-6.06
2022-12-11T21:31:20.327Z,-6.10
2022-12-11T21:36:25.886Z,-6.18
2022-12-11T21:41:32.290Z,-6.15
2022-12-11T21:46:37.966Z,-6.07
2022-12-11T21:51:47.036Z,-5.77
2022-12-11T21:56:56.512Z,-5.72
2022-12-11T22:02:02.255Z,-5.50
2022-12-11T22:07:08.038Z,-5.48
2022-12-11T22:12:27.597Z,-5.33
2022-12-11T22:17:33.691Z,-5.58
2022-12-11T22:22:39.014Z,-5.32
2022-12-11T22:27:44.624Z,-5.24
2022-12-11T22:32:50.265Z,-5.30
2022-12-11T22:37:56.049Z,-5.20
2022-12-11T22:43:01.596Z,-5.20
2022-12-11T22:48:09.986Z,-5.20
2022-12-11T22:53:15.587Z,-5.32
2022-12-11T22:58:22.129Z,-5.33
2022-12-11T23:03:28.663Z,-5.36
2022-12-11T23:08:35.051Z,-5.32
2022-12-11T23:13:41.084Z,-5.44
2022-12-11T23:18:46.927Z,-5.50
2022-12-11T23:23:52.794Z,-5.54
2022-12-11T23:29:00.410Z,-5.75
2022-12-11T23:34:06.022Z,-5.79
2022-12-11T23:39:12.015Z,-5.69
2022-12-11T23:44:17.499Z,-5.75
2022-12-11T23:49:23.141Z,-5.68
2022-12-11T23:54:28.741Z,-5.89
2022-12-11T23:59:34.338Z,-6.12
